sensor_id;sensor_type;location;lat;lon;timestamp;P1;durP1;ratioP1;P2;durP2;ratioP2
28009;SDS011;15334;49.494;8.410;2022-12-11T00:01:17;43.13;;;17.70;;
28009;SDS011;15334;49.494;8.410;2022-12-11T00:03:51;40.90;;;17.05;;
28009;SDS011;15334;49.494;8.410;2022-12-11T00:06:21;39.80;;;15.50;;
28009;SDS011;15334;49.494;8.410;2022-12-11T00:08:50;39.05;;;16.02;;
28009;SDS011;15334;49.494;8.410;2022-12-11T00:11:19;39.10;;;15.95;;
28009;SDS011;15334;49.494;8.410;2022-12-11T00:13:48;36.95;;;17.25;;
28009;SDS011;15334;49.494;8.410;2022-12-11T00:16:17;38.35;;;16.55;;
28009;SDS011;15334;49.494;8.410;2022-12-11T00:18:52;38.00;;;15.93;;
28009;SDS011;15334;49.494;8.410;2022-12-11T00:21:21;42.83;;;17.20;;
28009;SDS011;15334;49.494;8.410;2022-12-11T00:23:50;38.22;;;16.42;;
28009;SDS011;15334;49.494;8.410;2022-12-11T00:26:19;38.15;;;17.13;;
28009;SDS011;15334;49.494;8.410;2022-12-11T00:28:47;50.10;;;18.92;;
28009;SDS011;15334;49.494;8.410;2022-12-11T00:31:18;42.37;;;17.70;;
28009;SDS011;15334;49.494;8.410;2022-12-11T00:33:48;33.95;;;15.68;;
28009;SDS011;15334;49.494;8.410;2022-12-11T00:36:17;37.58;;;16.60;;
28009;SDS011;15334;49.494;8.410;2022-12-11T00:38:48;43.78;;;16.48;;
28009;SDS011;15334;49.494;8.410;2022-12-11T00:41:17;36.03;;;17.20;;
28009;SDS011;15334;49.494;8.410;2022-12-11T00:43:45;36.63;;;17.13;;
28009;SDS011;15334;49.494;8.410;2022-12-11T00:46:13;45.28;;;18.17;;
28009;SDS011;15334;49.494;8.410;2022-12-11T00:48:41;39.28;;;17.98;;
28009;SDS011;15334;49.494;8.410;2022-12-11T00:51:11;42.45;;;17.70;;
28009;SDS011;15334;49.494;8.410;2022-12-11T00:53:39;42.13;;;18.75;;
28009;SDS011;15334;49.494;8.410;2022-12-11T00:56:09;45.40;;;18.40;;
28009;SDS011;15334;49.494;8.410;2022-12-11T00:58:39;39.55;;;17.70;;
28009;SDS011;15334;49.494;8.410;2022-12-11T01:01:07;45.88;;;19.38;;
28009;SDS011;15334;49.494;8.410;2022-12-11T01:03:36;46.75;;;18.00;;
28009;SDS011;15334;49.494;8.410;2022-12-11T01:06:04;44.42;;;19.10;;
28009;SDS011;15334;49.494;8.410;2022-12-11T01:08:33;39.97;;;16.70;;
28009;SDS011;15334;49.494;8.410;2022-12-11T01:11:05;44.13;;;18.48;;
28009;SDS011;15334;49.494;8.410;2022-12-11T01:13:34;46.38;;;18.33;;
28009;SDS011;15334;49.494;8.410;2022-12-11T01:16:07;39.28;;;17.63;;
28009;SDS011;15334;49.494;8.410;2022-12-11T01:18:36;42.05;;;18.77;;
28009;SDS011;15334;49.494;8.410;2022-12-11T01:21:05;43.35;;;17.17;;
28009;SDS011;15334;49.494;8.410;2022-12-11T01:23:33;44.92;;;16.27;;
28009;SDS011;15334;49.494;8.410;2022-12-11T01:26:05;43.50;;;18.63;;
28009;SDS011;15334;49.494;8.410;2022-12-11T01:28:38;38.88;;;18.73;;
28009;SDS011;15334;49.494;8.410;2022-12-11T01:31:07;39.55;;;17.63;;
28009;SDS011;15334;49.494;8.410;2022-12-11T01:33:35;35.28;;;16.67;;
28009;SDS011;15334;49.494;8.410;2022-12-11T01:36:05;33.83;;;15.68;;
28009;SDS011;15334;49.494;8.410;2022-12-11T01:38:34;43.40;;;15.82;;
28009;SDS011;15334;49.494;8.410;2022-12-11T01:41:02;38.17;;;16.55;;
28009;SDS011;15334;49.494;8.410;2022-12-11T01:43:31;36.92;;;16.52;;
28009;SDS011;15334;49.494;8.410;2022-12-11T01:46:00;32.78;;;17.02;;
28009;SDS011;15334;49.494;8.410;2022-12-11T01:48:29;42.28;;;16.65;;
28009;SDS011;15334;49.494;8.410;2022-12-11T01:51:07;36.13;;;14.63;;
28009;SDS011;15334;49.494;8.410;2022-12-11T01:53:36;36.28;;;16.42;;
28009;SDS011;15334;49.494;8.410;2022-12-11T01:56:07;26.17;;;14.15;;
28009;SDS011;15334;49.494;8.410;2022-12-11T01:58:37;40.38;;;16.80;;
28009;SDS011;15334;49.494;8.410;2022-12-11T02:01:10;39.58;;;16.52;;
28009;SDS011;15334;49.494;8.410;2022-12-11T02:03:42;40.22;;;15.98;;
28009;SDS011;15334;49.494;8.410;2022-12-11T02:09:00;37.03;;;15.77;;
28009;SDS011;15334;49.494;8.410;2022-12-11T02:11:31;36.28;;;15.43;;
28009;SDS011;15334;49.494;8.410;2022-12-11T02:14:17;37.85;;;16.15;;
28009;SDS011;15334;49.494;8.410;2022-12-11T02:16:54;31.98;;;15.07;;
28009;SDS011;15334;49.494;8.410;2022-12-11T02:19:43;27.25;;;13.45;;
28009;SDS011;15334;49.494;8.410;2022-12-11T02:22:21;33.95;;;14.18;;
28009;SDS011;15334;49.494;8.410;2022-12-11T02:25:03;37.35;;;15.98;;
28009;SDS011;15334;49.494;8.410;2022-12-11T02:27:41;33.03;;;14.65;;
28009;SDS011;15334;49.494;8.410;2022-12-11T02:30:14;32.75;;;15.55;;
28009;SDS011;15334;49.494;8.410;2022-12-11T02:32:44;37.05;;;14.60;;
28009;SDS011;15334;49.494;8.410;2022-12-11T02:35:15;38.67;;;16.48;;
28009;SDS011;15334;49.494;8.410;2022-12-11T02:37:46;35.40;;;15.05;;
28009;SDS011;15334;49.494;8.410;2022-12-11T02:40:18;36.78;;;15.15;;
28009;SDS011;15334;49.494;8.410;2022-12-11T02:42:49;30.08;;;14.18;;
28009;SDS011;15334;49.494;8.410;2022-12-11T02:45:19;30.42;;;13.82;;
28009;SDS011;15334;49.494;8.410;2022-12-11T02:47:51;32.58;;;15.98;;
28009;SDS011;15334;49.494;8.410;2022-12-11T02:50:22;30.52;;;15.52;;
28009;SDS011;15334;49.494;8.410;2022-12-11T02:52:52;32.28;;;15.10;;
28009;SDS011;15334;49.494;8.410;2022-12-11T02:55:24;36.78;;;16.42;;
28009;SDS011;15334;49.494;8.410;2022-12-11T02:57:59;29.02;;;15.10;;
28009;SDS011;15334;49.494;8.410;2022-12-11T03:00:32;35.75;;;16.23;;
28009;SDS011;15334;49.494;8.410;2022-12-11T03:03:01;39.47;;;16.45;;
28009;SDS011;15334;49.494;8.410;2022-12-11T03:05:29;34.00;;;16.13;;
28009;SDS011;15334;49.494;8.410;2022-12-11T03:07:57;37.42;;;16.08;;
28009;SDS011;15334;49.494;8.410;2022-12-11T03:10:25;39.53;;;17.52;;
28009;SDS011;15334;49.494;8.410;2022-12-11T03:12:54;33.22;;;15.60;;
28009;SDS011;15334;49.494;8.410;2022-12-11T03:15:27;34.97;;;16.02;;
28009;SDS011;15334;49.494;8.410;2022-12-11T03:18:02;40.25;;;17.15;;
28009;SDS011;15334;49.494;8.410;2022-12-11T03:20:36;37.88;;;16.25;;
28009;SDS011;15334;49.494;8.410;2022-12-11T03:23:09;37.83;;;15.23;;
28009;SDS011;15334;49.494;8.410;2022-12-11T03:25:46;32.15;;;15.18;;
28009;SDS011;15334;49.494;8.410;2022-12-11T03:28:22;33.80;;;14.80;;
28009;SDS011;15334;49.494;8.410;2022-12-11T03:30:55;36.53;;;15.55;;
28009;SDS011;15334;49.494;8.410;2022-12-11T03:33:26;35.83;;;16.95;;
28009;SDS011;15334;49.494;8.410;2022-12-11T03:36:00;36.78;;;16.35;;
28009;SDS011;15334;49.494;8.410;2022-12-11T03:38:33;35.00;;;16.50;;
28009;SDS011;15334;49.494;8.410;2022-12-11T03:41:05;39.47;;;15.48;;
28009;SDS011;15334;49.494;8.410;2022-12-11T03:43:35;44.17;;;17.13;;
28009;SDS011;15334;49.494;8.410;2022-12-11T03:46:05;40.83;;;17.13;;
28009;SDS011;15334;49.494;8.410;2022-12-11T03:48:37;36.58;;;16.85;;
28009;SDS011;15334;49.494;8.410;2022-12-11T03:51:09;39.25;;;17.52;;
28009;SDS011;15334;49.494;8.410;2022-12-11T03:53:39;39.75;;;14.80;;
28009;SDS011;15334;49.494;8.410;2022-12-11T03:56:09;33.05;;;15.30;;
28009;SDS011;15334;49.494;8.410;2022-12-11T03:58:40;45.90;;;17.48;;
28009;SDS011;15334;49.494;8.410;2022-12-11T04:01:08;43.97;;;17.17;;
28009;SDS011;15334;49.494;8.410;2022-12-11T04:03:38;35.22;;;16.33;;
28009;SDS011;15334;49.494;8.410;2022-12-11T04:06:06;38.75;;;18.08;;
28009;SDS011;15334;49.494;8.410;2022-12-11T04:08:34;43.88;;;17.95;;
28009;SDS011;15334;49.494;8.410;2022-12-11T04:11:03;35.90;;;17.45;;
28009;SDS011;15334;49.494;8.410;2022-12-11T04:13:48;38.47;;;16.40;;
28009;SDS011;15334;49.494;8.410;2022-12-11T04:16:36;40.40;;;16.35;;
28009;SDS011;15334;49.494;8.410;2022-12-11T04:19:04;41.60;;;17.33;;
28009;SDS011;15334;49.494;8.410;2022-12-11T04:21:50;34.75;;;15.05;;
28009;SDS011;15334;49.494;8.410;2022-12-11T04:24:36;39.28;;;16.48;;
28009;SDS011;15334;49.494;8.410;2022-12-11T04:27:04;42.47;;;17.35;;
28009;SDS011;15334;49.494;8.410;2022-12-11T04:29:32;41.92;;;18.38;;
28009;SDS011;15334;49.494;8.410;2022-12-11T04:32:00;43.45;;;17.73;;
28009;SDS011;15334;49.494;8.410;2022-12-11T04:34:29;42.25;;;18.52;;
28009;SDS011;15334;49.494;8.410;2022-12-11T04:36:57;40.63;;;18.50;;
28009;SDS011;15334;49.494;8.410;2022-12-11T04:39:25;44.80;;;18.90;;
28009;SDS011;15334;49.494;8.410;2022-12-11T04:41:53;43.22;;;18.83;;
28009;SDS011;15334;49.494;8.410;2022-12-11T04:44:21;45.95;;;17.58;;
28009;SDS011;15334;49.494;8.410;2022-12-11T04:46:49;50.28;;;19.02;;
28009;SDS011;15334;49.494;8.410;2022-12-11T04:49:17;45.03;;;17.25;;
28009;SDS011;15334;49.494;8.410;2022-12-11T04:51:46;39.03;;;16.95;;
28009;SDS011;15334;49.494;8.410;2022-12-11T04:54:18;43.30;;;18.40;;
28009;SDS011;15334;49.494;8.410;2022-12-11T04:56:48;40.95;;;18.77;;
28009;SDS011;15334;49.494;8.410;2022-12-11T04:59:16;47.08;;;19.33;;
28009;SDS011;15334;49.494;8.410;2022-12-11T05:01:44;36.03;;;16.17;;
28009;SDS011;15334;49.494;8.410;2022-12-11T05:04:13;47.15;;;18.25;;
28009;SDS011;15334;49.494;8.410;2022-12-11T05:06:41;40.17;;;17.63;;
28009;SDS011;15334;49.494;8.410;2022-12-11T05:09:11;36.10;;;16.23;;
28009;SDS011;15334;49.494;8.410;2022-12-11T05:11:39;42.47;;;16.90;;
28009;SDS011;15334;49.494;8.410;2022-12-11T05:14:07;37.72;;;17.10;;
28009;SDS011;15334;49.494;8.410;2022-12-11T05:16:35;34.35;;;16.48;;
28009;SDS011;15334;49.494;8.410;2022-12-11T05:19:03;36.40;;;15.35;;
28009;SDS011;15334;49.494;8.410;2022-12-11T05:21:31;31.00;;;14.27;;
28009;SDS011;15334;49.494;8.410;2022-12-11T05:24:00;33.08;;;13.65;;
28009;SDS011;15334;49.494;8.410;2022-12-11T05:26:30;35.72;;;13.32;;
28009;SDS011;15334;49.494;8.410;2022-12-11T05:28:58;36.40;;;15.35;;
28009;SDS011;15334;49.494;8.410;2022-12-11T05:31:27;34.42;;;13.73;;
28009;SDS011;15334;49.494;8.410;2022-12-11T05:33:57;34.40;;;13.93;;
28009;SDS011;15334;49.494;8.410;2022-12-11T05:36:26;28.95;;;12.98;;
28009;SDS011;15334;49.494;8.410;2022-12-11T05:38:57;31.40;;;13.52;;
28009;SDS011;15334;49.494;8.410;2022-12-11T05:41:27;33.20;;;14.43;;
28009;SDS011;15334;49.494;8.410;2022-12-11T05:43:59;29.60;;;13.20;;
28009;SDS011;15334;49.494;8.410;2022-12-11T05:46:28;27.77;;;14.00;;
28009;SDS011;15334;49.494;8.410;2022-12-11T05:48:58;31.40;;;14.63;;
28009;SDS011;15334;49.494;8.410;2022-12-11T05:51:28;30.70;;;12.95;;
28009;SDS011;15334;49.494;8.410;2022-12-11T05:53:59;28.35;;;13.02;;
28009;SDS011;15334;49.494;8.410;2022-12-11T05:56:28;25.80;;;11.57;;
28009;SDS011;15334;49.494;8.410;2022-12-11T05:59:00;25.05;;;12.90;;
28009;SDS011;15334;49.494;8.410;2022-12-11T06:01:32;32.47;;;13.70;;
28009;SDS011;15334;49.494;8.410;2022-12-11T06:04:05;27.17;;;14.15;;
28009;SDS011;15334;49.494;8.410;2022-12-11T06:06:38;31.77;;;14.00;;
28009;SDS011;15334;49.494;8.410;2022-12-11T06:09:12;29.00;;;13.00;;
28009;SDS011;15334;49.494;8.410;2022-12-11T06:11:41;28.67;;;12.82;;
28009;SDS011;15334;49.494;8.410;2022-12-11T06:14:11;31.33;;;14.95;;
28009;SDS011;15334;49.494;8.410;2022-12-11T06:16:43;36.25;;;13.82;;
28009;SDS011;15334;49.494;8.410;2022-12-11T06:19:12;32.78;;;12.82;;
28009;SDS011;15334;49.494;8.410;2022-12-11T06:21:42;29.75;;;12.95;;
28009;SDS011;15334;49.494;8.410;2022-12-11T06:24:12;29.77;;;13.15;;
28009;SDS011;15334;49.494;8.410;2022-12-11T06:26:40;31.77;;;13.48;;
28009;SDS011;15334;49.494;8.410;2022-12-11T06:29:09;28.60;;;12.45;;
28009;SDS011;15334;49.494;8.410;2022-12-11T06:31:40;33.58;;;13.52;;
28009;SDS011;15334;49.494;8.410;2022-12-11T06:34:10;33.08;;;14.68;;
28009;SDS011;15334;49.494;8.410;2022-12-11T06:36:44;25.92;;;12.07;;
28009;SDS011;15334;49.494;8.410;2022-12-11T06:39:16;37.17;;;13.73;;
28009;SDS011;15334;49.494;8.410;2022-12-11T06:41:44;28.73;;;12.13;;
28009;SDS011;15334;49.494;8.410;2022-12-11T06:44:13;24.88;;;11.70;;
28009;SDS011;15334;49.494;8.410;2022-12-11T06:46:45;35.25;;;15.63;;
28009;SDS011;15334;49.494;8.410;2022-12-11T06:49:15;28.08;;;12.50;;
28009;SDS011;15334;49.494;8.410;2022-12-11T06:51:45;27.60;;;12.40;;
28009;SDS011;15334;49.494;8.410;2022-12-11T06:54:14;39.40;;;14.52;;
28009;SDS011;15334;49.494;8.410;2022-12-11T06:56:43;36.60;;;16.02;;
28009;SDS011;15334;49.494;8.410;2022-12-11T06:59:13;32.83;;;13.38;;
28009;SDS011;15334;49.494;8.410;2022-12-11T07:01:44;28.60;;;13.98;;
28009;SDS011;15334;49.494;8.410;2022-12-11T07:04:13;31.60;;;13.90;;
28009;SDS011;15334;49.494;8.410;2022-12-11T07:06:42;32.15;;;14.38;;
28009;SDS011;15334;49.494;8.410;2022-12-11T07:09:12;27.70;;;12.88;;
28009;SDS011;15334;49.494;8.410;2022-12-11T07:11:41;30.05;;;14.02;;
28009;SDS011;15334;49.494;8.410;2022-12-11T07:14:10;33.33;;;13.25;;
28009;SDS011;15334;49.494;8.410;2022-12-11T07:16:38;33.53;;;13.57;;
28009;SDS011;15334;49.494;8.410;2022-12-11T07:19:08;42.25;;;16.17;;
28009;SDS011;15334;49.494;8.410;2022-12-11T07:21:37;34.25;;;14.32;;
28009;SDS011;15334;49.494;8.410;2022-12-11T07:24:08;21.45;;;10.23;;
28009;SDS011;15334;49.494;8.410;2022-12-11T07:26:39;32.90;;;13.55;;
28009;SDS011;15334;49.494;8.410;2022-12-11T07:29:09;34.67;;;14.35;;
28009;SDS011;15334;49.494;8.410;2022-12-11T07:31:37;38.47;;;13.07;;
28009;SDS011;15334;49.494;8.410;2022-12-11T07:34:11;30.67;;;12.85;;
28009;SDS011;15334;49.494;8.410;2022-12-11T07:36:41;28.95;;;13.85;;
28009;SDS011;15334;49.494;8.410;2022-12-11T07:39:10;30.95;;;12.93;;
28009;SDS011;15334;49.494;8.410;2022-12-11T07:41:39;33.42;;;14.73;;
28009;SDS011;15334;49.494;8.410;2022-12-11T07:44:08;33.45;;;13.27;;
28009;SDS011;15334;49.494;8.410;2022-12-11T07:46:37;35.40;;;13.32;;
28009;SDS011;15334;49.494;8.410;2022-12-11T07:49:06;43.97;;;13.38;;
28009;SDS011;15334;49.494;8.410;2022-12-11T07:51:38;29.90;;;13.90;;
28009;SDS011;15334;49.494;8.410;2022-12-11T07:54:07;37.22;;;16.00;;
28009;SDS011;15334;49.494;8.410;2022-12-11T07:56:40;34.58;;;14.80;;
28009;SDS011;15334;49.494;8.410;2022-12-11T07:59:09;33.58;;;13.43;;
28009;SDS011;15334;49.494;8.410;2022-12-11T08:01:37;37.75;;;14.35;;
28009;SDS011;15334;49.494;8.410;2022-12-11T08:04:08;37.22;;;15.75;;
28009;SDS011;15334;49.494;8.410;2022-12-11T08:06:38;33.55;;;14.02;;
28009;SDS011;15334;49.494;8.410;2022-12-11T08:09:10;39.13;;;15.88;;
28009;SDS011;15334;49.494;8.410;2022-12-11T08:11:49;36.28;;;15.27;;
28009;SDS011;15334;49.494;8.410;2022-12-11T08:14:18;42.30;;;16.30;;
28009;SDS011;15334;49.494;8.410;2022-12-11T08:16:46;38.42;;;15.27;;
28009;SDS011;15334;49.494;8.410;2022-12-11T08:19:14;39.28;;;15.52;;
28009;SDS011;15334;49.494;8.410;2022-12-11T08:21:44;41.13;;;16.70;;
28009;SDS011;15334;49.494;8.410;2022-12-11T08:24:12;34.35;;;14.38;;
28009;SDS011;15334;49.494;8.410;2022-12-11T08:26:45;39.42;;;15.15;;
28009;SDS011;15334;49.494;8.410;2022-12-11T08:29:14;35.55;;;13.85;;
28009;SDS011;15334;49.494;8.410;2022-12-11T08:31:42;44.72;;;15.93;;
28009;SDS011;15334;49.494;8.410;2022-12-11T08:34:10;45.60;;;17.02;;
28009;SDS011;15334;49.494;8.410;2022-12-11T08:36:39;39.78;;;15.23;;
28009;SDS011;15334;49.494;8.410;2022-12-11T08:39:09;50.00;;;16.55;;
28009;SDS011;15334;49.494;8.410;2022-12-11T08:41:37;39.97;;;18.92;;
28009;SDS011;15334;49.494;8.410;2022-12-11T08:44:08;40.38;;;15.27;;
28009;SDS011;15334;49.494;8.410;2022-12-11T08:46:42;39.15;;;16.08;;
28009;SDS011;15334;49.494;8.410;2022-12-11T08:49:10;51.08;;;17.50;;
28009;SDS011;15334;49.494;8.410;2022-12-11T08:51:41;46.58;;;17.52;;
28009;SDS011;15334;49.494;8.410;2022-12-11T08:54:12;44.33;;;16.67;;
28009;SDS011;15334;49.494;8.410;2022-12-11T08:56:40;50.20;;;17.27;;
28009;SDS011;15334;49.494;8.410;2022-12-11T08:59:08;43.53;;;16.20;;
28009;SDS011;15334;49.494;8.410;2022-12-11T09:01:36;42.65;;;15.27;;
28009;SDS011;15334;49.494;8.410;2022-12-11T09:04:04;42.20;;;16.55;;
28009;SDS011;15334;49.494;8.410;2022-12-11T09:06:34;39.80;;;16.05;;
28009;SDS011;15334;49.494;8.410;2022-12-11T09:09:02;51.33;;;16.77;;
28009;SDS011;15334;49.494;8.410;2022-12-11T09:11:34;39.58;;;15.20;;
28009;SDS011;15334;49.494;8.410;2022-12-11T09:14:03;41.38;;;16.42;;
28009;SDS011;15334;49.494;8.410;2022-12-11T09:16:36;49.80;;;16.42;;
28009;SDS011;15334;49.494;8.410;2022-12-11T09:19:06;42.47;;;15.10;;
28009;SDS011;15334;49.494;8.410;2022-12-11T09:21:37;38.17;;;15.45;;
28009;SDS011;15334;49.494;8.410;2022-12-11T09:24:05;40.75;;;15.40;;
28009;SDS011;15334;49.494;8.410;2022-12-11T09:26:34;38.38;;;14.95;;
28009;SDS011;15334;49.494;8.410;2022-12-11T09:29:03;43.47;;;17.13;;
28009;SDS011;15334;49.494;8.410;2022-12-11T09:31:33;43.45;;;16.80;;
28009;SDS011;15334;49.494;8.410;2022-12-11T09:34:03;40.00;;;15.43;;
28009;SDS011;15334;49.494;8.410;2022-12-11T09:36:32;40.17;;;16.73;;
28009;SDS011;15334;49.494;8.410;2022-12-11T09:39:01;37.55;;;14.73;;
28009;SDS011;15334;49.494;8.410;2022-12-11T09:41:43;46.60;;;16.88;;
28009;SDS011;15334;49.494;8.410;2022-12-11T09:44:32;42.17;;;16.60;;
28009;SDS011;15334;49.494;8.410;2022-12-11T09:47:13;44.97;;;16.55;;
28009;SDS011;15334;49.494;8.410;2022-12-11T09:49:46;32.05;;;14.77;;
28009;SDS011;15334;49.494;8.410;2022-12-11T09:52:19;42.05;;;15.88;;
28009;SDS011;15334;49.494;8.410;2022-12-11T09:54:53;37.78;;;15.23;;
28009;SDS011;15334;49.494;8.410;2022-12-11T09:57:30;41.22;;;16.20;;
28009;SDS011;15334;49.494;8.410;2022-12-11T10:00:15;42.28;;;16.48;;
28009;SDS011;15334;49.494;8.410;2022-12-11T10:02:55;38.15;;;15.18;;
28009;SDS011;15334;49.494;8.410;2022-12-11T10:05:44;37.88;;;14.60;;
28009;SDS011;15334;49.494;8.410;2022-12-11T10:08:19;43.25;;;15.40;;
28009;SDS011;15334;49.494;8.410;2022-12-11T10:10:55;37.60;;;14.65;;
28009;SDS011;15334;49.494;8.410;2022-12-11T10:13:34;38.45;;;14.02;;
28009;SDS011;15334;49.494;8.410;2022-12-11T10:16:09;35.63;;;13.88;;
28009;SDS011;15334;49.494;8.410;2022-12-11T10:18:46;31.38;;;13.30;;
28009;SDS011;15334;49.494;8.410;2022-12-11T10:21:16;40.40;;;14.02;;
28009;SDS011;15334;49.494;8.410;2022-12-11T10:23:46;36.25;;;13.85;;
28009;SDS011;15334;49.494;8.410;2022-12-11T10:26:21;40.30;;;16.90;;
28009;SDS011;15334;49.494;8.410;2022-12-11T10:28:51;34.45;;;14.50;;
28009;SDS011;15334;49.494;8.410;2022-12-11T10:31:23;37.15;;;14.52;;
28009;SDS011;15334;49.494;8.410;2022-12-11T10:34:00;35.38;;;14.32;;
28009;SDS011;15334;49.494;8.410;2022-12-11T10:36:30;38.63;;;15.32;;
28009;SDS011;15334;49.494;8.410;2022-12-11T10:39:00;42.97;;;15.18;;
28009;SDS011;15334;49.494;8.410;2022-12-11T10:41:32;34.88;;;13.57;;
28009;SDS011;15334;49.494;8.410;2022-12-11T10:44:14;35.47;;;14.75;;
28009;SDS011;15334;49.494;8.410;2022-12-11T10:46:44;30.52;;;13.35;;
28009;SDS011;15334;49.494;8.410;2022-12-11T10:49:19;31.55;;;13.20;;
28009;SDS011;15334;49.494;8.410;2022-12-11T10:51:50;35.17;;;13.15;;
28009;SDS011;15334;49.494;8.410;2022-12-11T10:54:26;40.63;;;13.63;;
28009;SDS011;15334;49.494;8.410;2022-12-11T10:57:01;37.65;;;12.98;;
28009;SDS011;15334;49.494;8.410;2022-12-11T10:59:34;29.33;;;13.45;;
28009;SDS011;15334;49.494;8.410;2022-12-11T11:02:05;35.47;;;16.58;;
28009;SDS011;15334;49.494;8.410;2022-12-11T11:04:42;37.03;;;13.70;;
28009;SDS011;15334;49.494;8.410;2022-12-11T11:07:12;31.85;;;15.85;;
28009;SDS011;15334;49.494;8.410;2022-12-11T11:09:42;39.55;;;15.15;;
28009;SDS011;15334;49.494;8.410;2022-12-11T11:12:17;34.28;;;13.40;;
28009;SDS011;15334;49.494;8.410;2022-12-11T11:14:56;38.47;;;15.20;;
28009;SDS011;15334;49.494;8.410;2022-12-11T11:17:25;40.30;;;16.48;;
28009;SDS011;15334;49.494;8.410;2022-12-11T11:20:03;38.28;;;15.35;;
28009;SDS011;15334;49.494;8.410;2022-12-11T11:22:40;33.30;;;14.07;;
28009;SDS011;15334;49.494;8.410;2022-12-11T11:25:16;34.67;;;14.80;;
28009;SDS011;15334;49.494;8.410;2022-12-11T11:27:50;37.58;;;14.75;;
28009;SDS011;15334;49.494;8.410;2022-12-11T11:30:23;31.00;;;12.70;;
28009;SDS011;15334;49.494;8.410;2022-12-11T11:32:53;22.50;;;9.73;;
28009;SDS011;15334;49.494;8.410;2022-12-11T11:35:23;34.13;;;13.10;;
28009;SDS011;15334;49.494;8.410;2022-12-11T11:37:54;42.90;;;15.40;;
28009;SDS011;15334;49.494;8.410;2022-12-11T11:40:30;30.38;;;13.40;;
28009;SDS011;15334;49.494;8.410;2022-12-11T11:43:05;35.50;;;15.32;;
28009;SDS011;15334;49.494;8.410;2022-12-11T11:45:48;38.80;;;14.45;;
28009;SDS011;15334;49.494;8.410;2022-12-11T11:48:23;37.13;;;15.07;;
28009;SDS011;15334;49.494;8.410;2022-12-11T11:51:00;32.13;;;14.98;;
28009;SDS011;15334;49.494;8.410;2022-12-11T11:53:40;34.03;;;14.30;;
28009;SDS011;15334;49.494;8.410;2022-12-11T11:56:17;33.47;;;13.82;;
28009;SDS011;15334;49.494;8.410;2022-12-11T11:58:52;35.72;;;14.80;;
28009;SDS011;15334;49.494;8.410;2022-12-11T12:01:29;35.85;;;14.80;;
28009;SDS011;15334;49.494;8.410;2022-12-11T12:03:58;37.15;;;13.82;;
28009;SDS011;15334;49.494;8.410;2022-12-11T12:06:31;35.42;;;14.70;;
28009;SDS011;15334;49.494;8.410;2022-12-11T12:09:10;40.25;;;14.45;;
28009;SDS011;15334;49.494;8.410;2022-12-11T12:11:51;36.53;;;16.52;;
28009;SDS011;15334;49.494;8.410;2022-12-11T12:14:24;36.00;;;14.70;;
28009;SDS011;15334;49.494;8.410;2022-12-11T12:17:19;35.95;;;13.95;;
28009;SDS011;15334;49.494;8.410;2022-12-11T12:19:55;38.30;;;16.10;;
28009;SDS011;15334;49.494;8.410;2022-12-11T12:22:32;35.35;;;15.57;;
28009;SDS011;15334;49.494;8.410;2022-12-11T12:25:14;33.47;;;15.10;;
28009;SDS011;15334;49.494;8.410;2022-12-11T12:27:49;34.38;;;14.18;;
28009;SDS011;15334;49.494;8.410;2022-12-11T12:30:25;41.33;;;15.10;;
28009;SDS011;15334;49.494;8.410;2022-12-11T12:33:07;38.38;;;16.08;;
28009;SDS011;15334;49.494;8.410;2022-12-11T12:35:48;42.53;;;15.20;;
28009;SDS011;15334;49.494;8.410;2022-12-11T12:38:36;50.15;;;17.17;;
28009;SDS011;15334;49.494;8.410;2022-12-11T12:41:13;40.30;;;16.15;;
28009;SDS011;15334;49.494;8.410;2022-12-11T12:43:50;38.45;;;15.15;;
28009;SDS011;15334;49.494;8.410;2022-12-11T12:46:40;49.30;;;16.95;;
28009;SDS011;15334;49.494;8.410;2022-12-11T12:49:27;43.88;;;17.33;;
28009;SDS011;15334;49.494;8.410;2022-12-11T12:52:03;45.35;;;17.42;;
28009;SDS011;15334;49.494;8.410;2022-12-11T12:54:36;44.25;;;15.82;;
28009;SDS011;15334;49.494;8.410;2022-12-11T12:57:05;41.58;;;15.18;;
28009;SDS011;15334;49.494;8.410;2022-12-11T12:59:34;40.38;;;17.27;;
28009;SDS011;15334;49.494;8.410;2022-12-11T13:02:02;47.97;;;18.63;;
28009;SDS011;15334;49.494;8.410;2022-12-11T13:04:37;48.28;;;17.88;;
28009;SDS011;15334;49.494;8.410;2022-12-11T13:07:24;33.10;;;11.30;;
28009;SDS011;15334;49.494;8.410;2022-12-11T13:09:56;40.65;;;16.13;;
28009;SDS011;15334;49.494;8.410;2022-12-11T13:12:38;42.00;;;16.27;;
28009;SDS011;15334;49.494;8.410;2022-12-11T13:18:29;45.58;;;16.20;;
28009;SDS011;15334;49.494;8.410;2022-12-11T13:21:01;42.17;;;15.63;;
28009;SDS011;15334;49.494;8.410;2022-12-11T13:23:51;44.50;;;15.48;;
28009;SDS011;15334;49.494;8.410;2022-12-11T13:26:33;41.42;;;17.05;;
28009;SDS011;15334;49.494;8.410;2022-12-11T13:29:01;45.92;;;16.20;;
28009;SDS011;15334;49.494;8.410;2022-12-11T13:31:33;41.33;;;18.45;;
28009;SDS011;15334;49.494;8.410;2022-12-11T13:36:52;43.50;;;14.82;;
28009;SDS011;15334;49.494;8.410;2022-12-11T13:39:21;38.65;;;14.95;;
28009;SDS011;15334;49.494;8.410;2022-12-11T13:41:54;43.63;;;16.60;;
28009;SDS011;15334;49.494;8.410;2022-12-11T13:44:25;38.30;;;14.95;;
28009;SDS011;15334;49.494;8.410;2022-12-11T13:46:56;43.45;;;17.15;;
28009;SDS011;15334;49.494;8.410;2022-12-11T13:49:27;40.65;;;16.08;;
28009;SDS011;15334;49.494;8.410;2022-12-11T13:52:01;41.20;;;14.63;;
28009;SDS011;15334;49.494;8.410;2022-12-11T13:54:30;39.63;;;16.67;;
28009;SDS011;15334;49.494;8.410;2022-12-11T13:57:02;31.70;;;11.43;;
28009;SDS011;15334;49.494;8.410;2022-12-11T13:59:46;40.72;;;16.13;;
28009;SDS011;15334;49.494;8.410;2022-12-11T14:02:17;43.97;;;17.00;;
28009;SDS011;15334;49.494;8.410;2022-12-11T14:04:48;34.67;;;15.68;;
28009;SDS011;15334;49.494;8.410;2022-12-11T14:07:25;41.75;;;16.38;;
28009;SDS011;15334;49.494;8.410;2022-12-11T14:09:58;46.50;;;16.67;;
28009;SDS011;15334;49.494;8.410;2022-12-11T14:12:27;33.80;;;14.73;;
28009;SDS011;15334;49.494;8.410;2022-12-11T14:14:58;44.55;;;16.85;;
28009;SDS011;15334;49.494;8.410;2022-12-11T14:17:29;43.58;;;17.65;;
28009;SDS011;15334;49.494;8.410;2022-12-11T14:19:59;41.97;;;17.33;;
28009;SDS011;15334;49.494;8.410;2022-12-11T14:22:34;42.47;;;15.68;;
28009;SDS011;15334;49.494;8.410;2022-12-11T14:25:15;43.33;;;18.20;;
28009;SDS011;15334;49.494;8.410;2022-12-11T14:27:47;35.08;;;15.95;;
28009;SDS011;15334;49.494;8.410;2022-12-11T14:30:20;42.55;;;17.00;;
28009;SDS011;15334;49.494;8.410;2022-12-11T14:32:50;44.30;;;16.05;;
28009;SDS011;15334;49.494;8.410;2022-12-11T14:35:23;38.95;;;14.25;;
28009;SDS011;15334;49.494;8.410;2022-12-11T14:38:02;39.17;;;14.80;;
28009;SDS011;15334;49.494;8.410;2022-12-11T14:40:35;44.28;;;17.42;;
28009;SDS011;15334;49.494;8.410;2022-12-11T14:43:06;48.10;;;18.25;;
28009;SDS011;15334;49.494;8.410;2022-12-11T14:45:41;56.40;;;20.73;;
28009;SDS011;15334;49.494;8.410;2022-12-11T14:48:12;53.97;;;19.75;;
28009;SDS011;15334;49.494;8.410;2022-12-11T14:50:46;52.83;;;19.73;;
28009;SDS011;15334;49.494;8.410;2022-12-11T14:53:19;57.35;;;21.83;;
28009;SDS011;15334;49.494;8.410;2022-12-11T14:55:50;47.83;;;19.25;;
28009;SDS011;15334;49.494;8.410;2022-12-11T14:58:20;53.03;;;18.70;;